Pt. Reyes RCA field Weather observations

Data are for 10 minute period ending at time listed.
 Day   Time   Solar   Ave.   Ave.  Ave.  Vector    Max.   Stn.   Total 
  of    of     Rad.   Air    Rel.  Wind   Wind     Wind   Baro. Precip.
Year   Day            Temp.  Hum.  Speed  Dir.     Gust   Pres.        
2015   (PST)   W/m2    F      %     mph   deg.      mph    mb.    in.  
-----------------------------------------------------------------------
 242    6:30  999.0   999  999.0   999    999.0   999.0    999.0 999.00  
 242    6:40  999.0   999  999.0   999    999.0   999.0    999.0 999.00  
 242    6:50  999.0   999  999.0   999    999.0   999.0    999.0 999.00  
 242    7:00  999.0   999  999.0   999    999.0   999.0    999.0 999.00  
 242    7:10  999.0   999  999.0   999    999.0   999.0    999.0 999.00  
 242    7:20  999.0   999  999.0   999    999.0   999.0    999.0 999.00  
 242    7:30  128.0    60   98.3    10    310.4    14.5   1013.9  0.00  
 242    7:40  226.0    61   98.3    12    317.5    15.6   1013.9  0.00  
 242    7:50  267.0    61   98.2    10    331.5    13.3   1013.9  0.00  
 242    8:00  266.0    61   98.2    10    333.4    14.1   1013.9  0.00  
 242    8:10  345.0    62   98.2    10    331.8    14.6   1013.9  0.00  
 242    8:20  341.0    62   98.1     9    326.8    12.7   1013.9  0.00  
 242    8:30  433.0    62   98.0    13    310.6    16.9   1013.9  0.00  
 242    8:40  460.0    62   97.5    13    307.7    17.2   1013.9  0.00  
 242    8:50  487.0    63   94.3    14    307.2    17.8   1013.9  0.00  
 242    9:00  516.0    64   90.5    16    307.5    19.1   1014.2  0.00  
 242    9:10  544.0    64   87.7    15    307.9    19.6   1014.2  0.00  
 242    9:20  568.0    65   84.9    14    311.9    17.9   1014.2  0.00  
 242    9:30  590.0    65   83.5    14    312.5    18.5   1014.2  0.00  
 242    9:40  615.0    65   83.1    14    311.0    17.6   1014.2  0.00  
 242    9:50  637.0    65   82.1    14    312.3    16.9   1014.6  0.00  
 242   10:00  658.0    66   82.1    13    307.8    17.8   1014.6  0.00  
 242   10:10  678.0    66   80.2    14    306.3    19.3   1014.6  0.00  
 242   10:20  694.0    66   80.4    14    308.5    19.1   1014.6  0.00  
 242   10:30  710.0    67   78.7    13    308.4    18.3   1014.6  0.00  
 242   10:40  721.0    67   80.1    12    307.3    16.9   1014.6  0.00  
 242   10:50  733.0    67   80.0    12    310.1    15.9   1014.6  0.00  
 242   11:00  740.0    66   81.0    12    309.2    17.0   1014.6  0.00  
 242   11:10  750.0    66   81.8    12    300.9    16.4   1014.6  0.00  
 242   11:20  761.0    66   80.3    12    304.6    15.0   1014.6  0.00  
 242   11:30  770.0    67   79.9    12    304.6    15.9   1014.2  0.00  
 242   11:40  755.0    67   80.4    13    303.5    18.0   1014.2  0.00  
 242   11:50  773.0    67   78.5    13    301.9    17.3   1014.2  0.00  
 242   12:00  778.0    67   79.7    14    305.4    17.5   1014.2  0.00  
 242   12:10  783.0    67   78.8    13    303.6    18.6   1014.2  0.00  
 242   12:20  793.0    67   78.9    14    305.0    18.4   1013.9  0.00  
 242   12:30  790.0    67   79.4    14    301.7    18.7   1013.9  0.00  
 242   12:40  785.0    67   80.7    14    304.9    18.5   1013.9  0.00  
 242   12:50  751.0    66   82.1    11    306.1    15.4   1013.9  0.00  
 242   13:00  728.0    67   80.8    10    312.4    15.3   1013.9  0.00  
 242   13:10  750.0    67   81.1    12    308.4    15.6   1013.9  0.00  
 242   13:20  745.0    67   81.3    12    310.8    16.2   1013.9  0.00  
 242   13:30  720.0    68   80.2    13    312.2    18.0   1013.9  0.00  
 242   13:40  732.0    68   79.8    14    310.7    21.7   1013.5  0.00  
 242   13:50  719.0    67   80.8    16    310.7    22.5   1013.5  0.00  
 242   14:00  705.0    68   80.2    18    307.3    24.2   1013.2  0.00  
 242   14:10  684.0    67   82.1    17    309.2    22.4   1013.2  0.00  
 242   14:20  648.0    68   80.6    17    311.3    21.7   1012.9  0.00  
 242   14:30  597.0    67   82.8    17    312.5    23.0   1012.9  0.00  
 242   14:40  583.0    67   82.5    18    310.7    23.5   1012.9  0.00  
 242   14:50  602.0    67   83.4    18    307.5    24.2   1012.5  0.00  
 242   15:00  572.0    67   82.6    17    306.8    21.6   1012.5  0.00  
 242   15:10  544.0    67   82.6    17    307.5    23.7   1012.5  0.00  
 242   15:20  510.0    67   83.3    16    302.9    20.9   1012.5  0.00  
 242   15:30  499.0    66   84.8    17    299.7    22.1   1012.5  0.00  
 242   15:40  482.0    66   85.1    15    301.9    20.2   1012.2  0.00  
 242   15:50  463.0    67   84.4    16    299.5    22.4   1012.2  0.00  
 242   16:00  441.0    67   84.8    16    302.2    21.2   1011.9  0.00  
 242   16:10  409.0    67   84.3    15    304.7    20.6   1011.9  0.00  
 242   16:20  382.0    66   84.5    14    306.3    20.4   1011.9  0.00  
 242   16:30  358.0    66   84.8    15    307.4    21.8   1011.9  0.00  
 242   16:40  325.0    66   86.2    15    307.9    20.4   1011.9  0.00  
 242   16:50  293.0    66   85.8    14    306.7    18.9   1011.9  0.00  
 242   17:00  264.0    65   86.2    15    307.4    20.9   1011.9  0.00  
 242   17:10  234.0    66   85.5    14    302.2    18.0   1011.5  0.00  
 242   17:20  206.0    65   85.4    14    300.2    19.0   1011.5  0.00  
 242   17:30  177.0    65   85.1    13    294.9    18.8   1011.5  0.00  
 242   17:40  151.0    65   85.7    12    292.9    18.4   1011.5  0.00  
 242   17:50  124.0    65   86.5    12    297.5    17.3   1011.5  0.00  
 242   18:00   98.0    64   88.0    14    300.1    19.4   1011.2  0.00  
 242   18:10   69.0    63   89.9    16    299.1    20.8   1011.2  0.00  
 242   18:20   43.0    63   90.8    15    299.6    19.9   1011.2  0.00  
 242   18:30   24.0    63   91.5    15    301.4    21.0   1011.2  0.00  
 242   18:40   12.0    62   92.4    16    305.1    19.7   1011.2  0.00  
 242   18:50    4.0    62   93.0    16    307.0    21.5   1011.2  0.00  
 242   19:00    3.0    62   93.5    15    308.7    21.5   1010.8  0.00  
 242   19:10    0.0    61   93.8    14    310.5    19.0   1010.8  0.00  
 242   19:20    0.0    61   93.1    12    314.9    16.6   1011.2  0.00  
 242   19:30    0.0    61   92.1    12    317.7    17.1   1011.2  0.00  
 242   19:40    0.0    62   90.3    12    314.4    16.8   1011.2  0.00  
 242   19:50    0.0    62   87.7    13    315.3    19.3   1011.2  0.00  
 242   20:00    0.0    62   87.3     8    351.6    15.9   1011.2  0.00  
 242   20:10    0.0    60   89.1     8    359.6    13.2   1011.2  0.00  
 242   20:20    0.0    61   88.7    10    357.6    13.4   1011.2  0.00  
 242   20:30    0.0    61   87.9     9    359.7    12.3   1011.5  0.00  
 242   20:40    0.0    61   87.8     9    346.3    12.6   1011.5  0.00  
 242   20:50    0.0    61   86.3    11    339.9    16.4   1011.2  0.00  
 242   21:00    0.0    60   87.4     7    323.3    12.0   1011.2  0.00  
 242   21:10    0.0    60   88.7    10    318.7    14.2   1011.2  0.00  
 242   21:20    0.0    61   88.8    12    313.8    18.0   1011.2  0.00  
 242   21:30    0.0    61   90.0    14    306.3    18.3   1010.8  0.00  
 242   21:40    0.0    60   91.0    15    304.2    18.8   1010.8  0.00  
 242   21:50    0.0    60   90.9    14    305.7    19.4   1010.8  0.00  
 242   22:00    0.0    60   89.8    13    313.2    18.0   1010.8  0.00  
 242   22:10    0.0    60   89.6    10    326.7    13.6   1010.8  0.00  
 242   22:20    0.0    59   90.4     7    337.3    10.3   1010.8  0.00  
 242   22:30    0.0    59   91.4     8    332.1    11.8   1010.8  0.00  
 242   22:40    0.0    59   90.9     9    327.6    11.0   1010.5  0.00  
 242   22:50    0.0    59   91.5    10    321.8    13.9   1010.5  0.00  
 242   23:00    0.0    59   90.9    10    322.5    13.1   1010.5  0.00  
 242   23:10    0.0    59   90.9    10    323.5    12.4   1010.5  0.00  
 242   23:20    0.0    58   91.1     9    321.9    13.0   1010.5  0.00  
 242   23:30    0.0    58   90.9    10    326.6    12.9   1010.5  0.00  
 242   23:40    0.0    58   90.6     8    332.1    11.7   1010.5  0.00  
 242   23:50    0.0    58   91.3     8    341.0    10.4   1010.2  0.00  
 243    0:00    0.0    58   92.1     7    342.1     9.8   1010.2  0.00  
 243    0:10    0.0    57   92.3     7    341.1     9.2   1010.2  0.00  
 243    0:20    0.0    57   92.9     8    335.7    11.2   1010.2  0.00  
 243    0:30    0.0    57   93.5     8    320.2    10.7   1010.2  0.00  
 243    0:40    0.0    58   94.1     7    332.6     9.5   1010.2  0.00  
 243    0:50    0.0    57   94.3     6    337.8     8.3   1009.8  0.00  
 243    1:00    0.0    57   94.7     6    347.2     7.7   1009.8  0.00  
 243    1:10    0.0    56   95.1     5    357.6     7.4   1009.8  0.00  
 243    1:20    0.0    56   95.4     3     10.9     4.7   1009.8  0.00  
 243    1:30    0.0    56   95.5     2    356.2     3.7   1009.8  0.00  
 243    1:40    0.0    56   95.6     3    340.9     4.7   1009.5  0.00  
 243    1:50    0.0    56   95.6     4    322.7     6.2   1009.5  0.00  
 243    2:00    0.0    55   95.4     4    337.3     5.8   1009.5  0.00  
 243    2:10    0.0    55   95.7     3    351.0     6.1   1009.5  0.00  
 243    2:20    0.0    55   96.1     2    322.8     3.8   1009.5  0.00  
 243    2:30    0.0    55   96.1     2      2.7     2.7   1009.5  0.00  
 243    2:40    0.0    56   96.3     1      8.7     2.0   1009.5  0.00  
 243    2:50    0.0    56   96.5     2    318.6     3.9   1009.5  0.00  
 243    3:00    0.0    56   96.3     3    324.3     4.3   1009.5  0.00  
 243    3:10    0.0    55   96.3     4    332.7     5.7   1009.5  0.00  
 243    3:20    0.0    55   96.4     2     50.8     2.7   1009.8  0.00  
 243    3:30    0.0    54   96.4     1     73.5     2.3   1009.8  0.00  
 243    3:40    0.0    55   97.0     0     45.8     1.4   1009.8  0.00  
 243    3:50    0.0    56   97.1     0    311.6     2.0   1009.8  0.00  
 243    4:00    0.0    55   97.0     1    347.5     2.4   1009.5  0.00  
 243    4:10    0.0    55   96.9     1     27.9     2.0   1009.5  0.00  
 243    4:20    0.0    54   97.0     1     77.7     1.3   1009.5  0.00  
 243    4:30    0.0    55   97.3     0     72.8     0.8   1009.5  0.00  
 243    4:40    0.0    55   97.3     0     70.9     0.7   1009.5  0.00  
 243    4:50    0.0    54   97.3     1     29.8     2.4   1009.5  0.00  
 243    5:00    0.0    54   97.4     1    351.2     3.3   1009.5  0.00  
 243    5:10    0.0    54   97.5     1    319.6     2.9   1009.5  0.00  
 243    5:20    0.0    55   97.6     1    312.1     2.4   1009.5  0.00  
 243    5:30    0.0    55   97.6     1    288.3     3.4   1009.5  0.00  
 243    5:40    1.0    55   97.6     3    273.9     3.9   1009.5  0.00  
 243    5:50    6.0    55   97.7     3    287.3     3.4   1009.5  0.00  
 243    6:00   13.0    54   97.6     1    299.8     2.8   1009.5  0.00  
 243    6:10   32.0    54   97.6     1    223.6     1.7   1009.5  0.00  
 243    6:20   53.0    54   97.7     2    217.1     2.9   1009.5  0.00  

Return to Pt. Reyes graphs page.


Western Regional Climate Center,wrcc@dri.edu